KSNAKSLI

Guest
Details From KSNA - Orange County - John Wayne
To KSLI - Los Alamitos AAF
Flight Number -
Tags generated
Created
Modified
Stats Distance 12 nm / 22 km
Max Altitude 0 ft / 0 m
Waypoints 3
Social Downloads 2
Likes 0
Share VATSIM

Download

Looking for another format? Having issues loading an existing format? Contact us
Advertisement - Login to hide

Notes

Basic altitude profile: - Ascent Rate: 2500ft/min - Ascent Speed: 250kts - Cruise Altitude: 2000ft - Cruise Speed: 420kts - Descent Rate: 1500ft/min - Descent Speed: 250kts Options: - Use NATs: yes - Use PACOTS: no - Use low airways: yes - Use high airways: no

Route

KSNA SLI KSLI

ID Type Via Altitude Latitude Longitude Leg Dist Tot Dist Heading (true) Name
O KSNA APT - 0 ft / 0 m 33.67611˚ -117.86764˚ - 0 nm - Orange County - John Wayne
SLI DME - 0 ft / 0 m 33.78330˚ -118.05476˚ 11 nm 11 nm 305° / 305° SEAL BEACH VORTAC
O KSLI APT - 0 ft / 0 m 33.78983˚ -118.05028˚ 0 nm 11 nm 30° / 30° Los Alamitos AAF

Altitude Profile

Advertisement - Login to hide

KSNA

Details ICAO KSNA (SNA)
Name Orange County - John Wayne
Region United States
Timezone America/Los_Angeles (UTC-8.0)
Stats Elevation 56 ft / 17 m (AMSL)
Location 33.676112° -117.867636°
Runways 2
Magnetic Variation 11.845° E

METAR

KSNA 182153Z 21007KT 10SM SCT210 21/03 A3011 RMK AO2 SLP197 T02060033

Decode

TAF

TAF KSNA 181720Z 1818/1918 VRB06KT P6SM FEW200

Decode

Departure Runways

ID Width Length Bearing (true) Bearing (mag) Surface Threshold Offset Overrun Length
01L 151 ft / 46 m 5,711 ft / 1,741 m 27.81° 15.97° Asphalt 0 ft / 0 m 1,050 ft / 320 m
01R 75 ft / 23 m 2,892 ft / 881 m 27.80° 15.96° Asphalt 0 ft / 0 m 400 ft / 122 m
19L 75 ft / 23 m 2,892 ft / 881 m 207.80° 195.96° Asphalt 0 ft / 0 m 151 ft / 46 m
19R 151 ft / 46 m 5,711 ft / 1,741 m 207.81° 195.97° Asphalt 0 ft / 0 m 194 ft / 59 m

KSLI

Details ICAO KSLI
Name Los Alamitos AAF
Region United States
Timezone America/Los_Angeles (UTC-8.0)
Stats Elevation 35 ft / 11 m (AMSL)
Location 33.789834° -118.050277°
Runways 3
Magnetic Variation 11.904° E

METAR

KSLI 182158Z 21007KT 10SM SCT250 21/06 A3011 RMK AO2A SLP199 T02070055

Decode

TAF

TAF TAF KSLI 182101Z 1821/2003 28009KT 9999 FEW250 QNH3012INS BECMG 1902/1903 VRB06KT 9999 FEW200 QNH3015INS BECMG 1920/1921 30012KT 9999 FEW200 QNH3018INS BECMG 2000/2001 VRB06KT 9999 SCT200 QNH3012INS TX21/1823Z TN05/1914Z

Decode

Destination Runways

ID Width Length Bearing (true) Bearing (mag) Surface Threshold Offset Overrun Length
04L 150 ft / 46 m 5,910 ft / 1,801 m 55.24° 43.34° Asphalt 0 ft / 0 m 0 ft / 0 m
04R 200 ft / 61 m 7,998 ft / 2,438 m 55.23° 43.33° Asphalt 0 ft / 0 m 800 ft / 244 m
17 150 ft / 46 m 3,103 ft / 946 m 180.00° 168.10° Asphalt 0 ft / 0 m 0 ft / 0 m
22L 200 ft / 61 m 7,998 ft / 2,438 m 235.25° 223.35° Asphalt 0 ft / 0 m 1,000 ft / 305 m
22R 150 ft / 46 m 5,910 ft / 1,801 m 235.24° 223.34° Asphalt 0 ft / 0 m 0 ft / 0 m
35 150 ft / 46 m 3,103 ft / 946 m 0.00° 348.10° Asphalt 0 ft / 0 m 0 ft / 0 m